Time;durP1;ratioP1;P1;durP2;ratioP2;P2;SDS_P1;SDS_P2;PMS_P1;PMS_P2;Temp;Humidity;BMP_temperature;BMP_pressure;BME280_temperature;BME280_humidity;BME280_pressure;Samples;Min_cycle;Max_cycle;Signal;HPM_P1;HPM_P2
2022/11/10 00:03:54;;;;;;;38.9;56;;;;;;;6.9;93.3;98960;;;;
2022/11/10 00:25:53;;;;;;;37.6;49.8;;;;;;;6.8;92.7;98970;;;;
2022/11/10 00:36:53;;;;;;;37.6;49.8;;;;;;;6.8;92.8;98970;;;;
2022/11/10 00:46:53;;;;;;;30.3;44.4;;;;;;;6.7;92.7;98980;;;;
2022/11/10 00:57:53;;;;;;;30.3;44.4;;;;;;;6.6;92.6;98980;;;;
2022/11/10 01:08:53;;;;;;;30.3;44.4;;;;;;;6.6;92.6;98990;;;;
2022/11/10 01:19:53;;;;;;;33.1;45.3;;;;;;;6.6;92.7;98990;;;;
2022/11/10 01:30:53;;;;;;;33.1;45.3;;;;;;;6.6;92.7;98990;;;;
2022/11/10 01:40:53;;;;;;;33.1;45.3;;;;;;;6.6;92.8;98990;;;;
2022/11/10 01:51:53;;;;;;;28.4;40.7;;;;;;;6.6;92.7;99010;;;;
2022/11/10 02:01:53;;;;;;;28.4;40.7;;;;;;;6.6;92.4;99010;;;;
2022/11/10 02:12:53;;;;;;;28.4;40.7;;;;;;;6.4;91.9;99020;;;;
2022/11/10 02:23:53;;;;;;;31.6;44.8;;;;;;;5.8;90;99040;;;;
2022/11/10 02:34:53;;;;;;;31.6;44.8;;;;;;;5.1;87.2;99060;;;;
2022/11/10 02:45:53;;;;;;;28.4;44.2;;;;;;;4.9;88.5;99050;;;;
2022/11/10 02:56:53;;;;;;;28.4;44.2;;;;;;;5.3;90.4;99050;;;;
2022/11/10 03:06:53;;;;;;;28.4;44.2;;;;;;;5.1;90.3;99060;;;;
2022/11/10 03:16:53;;;;;;;22.6;38.4;;;;;;;5.1;90.1;99060;;;;
2022/11/10 03:27:53;;;;;;;22.6;38.4;;;;;;;5.8;92.7;99070;;;;
2022/11/10 03:37:53;;;;;;;22.6;38.4;;;;;;;5.9;93;99070;;;;
2022/11/10 03:47:53;;;;;;;22;32.7;;;;;;;6.2;93.2;99080;;;;
2022/11/10 03:58:53;;;;;;;22;32.7;;;;;;;6.2;93.1;99090;;;;
2022/11/10 04:09:53;;;;;;;22;32.7;;;;;;;5.7;90.9;99100;;;;
2022/11/10 04:20:53;;;;;;;28.8;43.5;;;;;;;5.5;89.6;99100;;;;
2022/11/10 04:30:53;;;;;;;28.8;43.5;;;;;;;5.8;90.1;99110;;;;
2022/11/10 04:41:53;;;;;;;28.8;43.5;;;;;;;6.5;92;99100;;;;
2022/11/10 04:52:53;;;;;;;23.3;33.7;;;;;;;6.9;92.4;99100;;;;
2022/11/10 05:03:53;;;;;;;23.3;33.7;;;;;;;7.2;92.3;99120;;;;
2022/11/10 05:13:53;;;;;;;23.3;33.7;;;;;;;7.3;91.6;99130;;;;
2022/11/10 05:24:53;;;;;;;25.9;33.1;;;;;;;7;88.7;99150;;;;
2022/11/10 05:34:53;;;;;;;25.9;33.1;;;;;;;6.5;87;99160;;;;
2022/11/10 05:44:53;;;;;;;24.2;32.8;;;;;;;6.6;87.2;99170;;;;
2022/11/10 05:55:53;;;;;;;24.2;32.8;;;;;;;6.7;87.6;99190;;;;
2022/11/10 06:05:53;;;;;;;24.2;32.8;;;;;;;6.9;88;99210;;;;
2022/11/10 06:16:53;;;;;;;22.3;31.7;;;;;;;7.1;88.4;99220;;;;
2022/11/10 06:27:53;;;;;;;22.3;31.7;;;;;;;7.4;89;99250;;;;
2022/11/10 06:37:53;;;;;;;22.3;31.7;;;;;;;7.7;89.3;99270;;;;
2022/11/10 06:48:53;;;;;;;23;29.8;;;;;;;8;89.3;99280;;;;
2022/11/10 06:58:53;;;;;;;23;29.8;;;;;;;8.2;88.8;99290;;;;
2022/11/10 07:09:53;;;;;;;23;29.8;;;;;;;8.3;88;99310;;;;
2022/11/10 07:19:53;;;;;;;27;32.8;;;;;;;8.4;87.5;99330;;;;
2022/11/10 07:30:53;;;;;;;27;32.8;;;;;;;8.3;87.2;99340;;;;
2022/11/10 07:40:53;;;;;;;27;32.8;;;;;;;8.3;87.8;99340;;;;
2022/11/10 07:51:54;;;;;;;25.8;34.1;;;;;;;8.5;88.6;99360;;;;
2022/11/10 08:01:53;;;;;;;25.8;34.1;;;;;;;8.7;88.8;99370;;;;
2022/11/10 08:12:54;;;;;;;25.8;34.1;;;;;;;8.8;88.8;99380;;;;
2022/11/10 08:22:53;;;;;;;25.4;32.9;;;;;;;9;88.8;99390;;;;
2022/11/10 08:32:54;;;;;;;25.4;32.9;;;;;;;9.2;89.1;99410;;;;
2022/11/10 08:43:53;;;;;;;26.4;33.7;;;;;;;9.4;88.4;99430;;;;
2022/11/10 08:53:53;;;;;;;26.4;33.7;;;;;;;9.6;88.2;99430;;;;
2022/11/10 09:04:53;;;;;;;26.4;33.7;;;;;;;9.8;87.8;99450;;;;
2022/11/10 09:15:53;;;;;;;23.7;28.2;;;;;;;10.1;87.9;99470;;;;
2022/11/10 09:26:53;;;;;;;23.7;28.2;;;;;;;10.4;87.5;99480;;;;
2022/11/10 09:37:53;;;;;;;23.7;28.2;;;;;;;10.5;87.4;99480;;;;
2022/11/10 09:48:53;;;;;;;24.6;30.5;;;;;;;10.8;87.2;99490;;;;
2022/11/10 09:59:53;;;;;;;24.6;30.5;;;;;;;11;86.6;99500;;;;
2022/11/10 10:10:53;;;;;;;24.6;30.5;;;;;;;11.4;86.2;99510;;;;
2022/11/10 10:20:53;;;;;;;24.2;28.7;;;;;;;11.6;86.1;99510;;;;
2022/11/10 10:30:53;;;;;;;24.2;28.7;;;;;;;11.6;85.5;99530;;;;
2022/11/10 10:41:53;;;;;;;24.2;28.7;;;;;;;11.8;85.7;99530;;;;
2022/11/10 10:52:54;;;;;;;22.6;27.5;;;;;;;11.8;85;99540;;;;
2022/11/10 11:02:53;;;;;;;22.6;27.5;;;;;;;11.7;84.6;99540;;;;
2022/11/10 11:12:53;;;;;;;22.6;27.5;;;;;;;11.7;85.1;99560;;;;
2022/11/10 11:23:53;;;;;;;26.6;34.4;;;;;;;11.6;85.6;99560;;;;
2022/11/10 11:34:53;;;;;;;26.6;34.4;;;;;;;11.6;86;99570;;;;
2022/11/10 11:44:53;;;;;;;35.5;42.9;;;;;;;11.6;86.6;99580;;;;
2022/11/10 11:55:53;;;;;;;35.5;42.9;;;;;;;11.6;86.8;99590;;;;
2022/11/10 12:06:53;;;;;;;35.5;42.9;;;;;;;11.6;87.3;99600;;;;
2022/11/10 12:16:53;;;;;;;43.1;55;;;;;;;11.7;87.6;99600;;;;
2022/11/10 12:26:54;;;;;;;43.1;55;;;;;;;11.7;87.5;99600;;;;
2022/11/10 12:36:53;;;;;;;43.1;55;;;;;;;11.9;87.1;99610;;;;
2022/11/10 12:46:53;;;;;;;19.8;23.9;;;;;;;11.8;86.3;99620;;;;
2022/11/10 12:57:53;;;;;;;19.8;23.9;;;;;;;12;86.1;99620;;;;
2022/11/10 13:07:53;;;;;;;19.8;23.9;;;;;;;12.1;85.4;99630;;;;
2022/11/10 13:18:54;;;;;;;21.4;27;;;;;;;12.1;84.8;99640;;;;
2022/11/10 13:28:53;;;;;;;21.4;27;;;;;;;11.8;84.5;99660;;;;
2022/11/10 13:39:53;;;;;;;21.4;27;;;;;;;11.6;85.1;99670;;;;
2022/11/10 13:49:53;;;;;;;22.2;28;;;;;;;11.5;84.9;99670;;;;
2022/11/10 13:59:55;;;;;;;22.2;28;;;;;;;11.3;85;99680;;;;
2022/11/10 14:10:53;;;;;;;22.2;28;;;;;;;11.2;85.1;99690;;;;
2022/11/10 14:20:53;;;;;;;20.8;23.3;;;;;;;11.1;85.3;99700;;;;
2022/11/10 14:30:53;;;;;;;20.8;23.3;;;;;;;10.9;85.1;99720;;;;
2022/11/10 14:40:53;;;;;;;20.8;23.3;;;;;;;10.7;85.5;99730;;;;
2022/11/10 14:51:53;;;;;;;24.4;30.7;;;;;;;10.5;85.7;99740;;;;
2022/11/10 15:02:54;;;;;;;24.4;30.7;;;;;;;10.4;86;99750;;;;
2022/11/10 15:12:53;;;;;;;24.4;30.7;;;;;;;10.4;86.1;99760;;;;
2022/11/10 15:23:54;;;;;;;20;24.5;;;;;;;10.3;86.2;99780;;;;
2022/11/10 15:34:53;;;;;;;20;24.5;;;;;;;10.2;86.3;99790;;;;
2022/11/10 15:44:53;;;;;;;19.9;29.5;;;;;;;10.1;86.3;99800;;;;
2022/11/10 15:55:54;;;;;;;19.9;29.5;;;;;;;10.1;86.3;99810;;;;
2022/11/10 16:06:55;;;;;;;19.9;29.5;;;;;;;10;86.3;99830;;;;
2022/11/10 16:17:53;;;;;;;19.5;24;;;;;;;9.9;86.1;99840;;;;
2022/11/10 16:27:54;;;;;;;19.5;24;;;;;;;9.9;86.4;99850;;;;
2022/11/10 16:38:53;;;;;;;19.5;24;;;;;;;9.9;86.8;99860;;;;
2022/11/10 16:49:54;;;;;;;20.9;26.2;;;;;;;10;86.5;99870;;;;
2022/11/10 17:00:54;;;;;;;20.9;26.2;;;;;;;10.1;86;99900;;;;
2022/11/10 17:11:54;;;;;;;20.9;26.2;;;;;;;10;85.6;99920;;;;
2022/11/10 17:22:53;;;;;;;19.9;26.6;;;;;;;9.8;85.3;99950;;;;
2022/11/10 17:32:55;;;;;;;19.9;26.6;;;;;;;9.5;84.9;99970;;;;
2022/11/10 17:43:54;;;;;;;20.2;24.9;;;;;;;9.1;85.1;99980;;;;
2022/11/10 17:54:54;;;;;;;20.2;24.9;;;;;;;8.9;85.2;99980;;;;
2022/11/10 18:05:54;;;;;;;20.2;24.9;;;;;;;8.7;86;99990;;;;
2022/11/10 18:16:54;;;;;;;22.8;30.2;;;;;;;8.9;86.8;100000;;;;
2022/11/10 18:26:54;;;;;;;22.8;30.2;;;;;;;9;87.2;100010;;;;
2022/11/10 18:37:54;;;;;;;22.8;30.2;;;;;;;9;87.4;100000;;;;
2022/11/10 18:47:54;;;;;;;31.1;39.8;;;;;;;8.9;87.4;100020;;;;
2022/11/10 18:58:54;;;;;;;31.1;39.8;;;;;;;8.7;87.4;100030;;;;
2022/11/10 19:08:54;;;;;;;31.1;39.8;;;;;;;8.4;87.3;100040;;;;
2022/11/10 19:18:54;;;;;;;31.4;43.8;;;;;;;8.2;87.5;100050;;;;
2022/11/10 19:28:54;;;;;;;31.4;43.8;;;;;;;8;87.6;100050;;;;
2022/11/10 19:39:54;;;;;;;31.4;43.8;;;;;;;7.9;88.2;100060;;;;
2022/11/10 19:49:54;;;;;;;28;36.2;;;;;;;7.7;88.3;100070;;;;
2022/11/10 19:59:54;;;;;;;28;36.2;;;;;;;7.6;88.5;100080;;;;
2022/11/10 20:09:54;;;;;;;28;36.2;;;;;;;7.4;88.5;100100;;;;
2022/11/10 20:20:54;;;;;;;24;38.4;;;;;;;7.3;88.6;100120;;;;
2022/11/10 20:30:54;;;;;;;24;38.4;;;;;;;7.3;89.1;100120;;;;
2022/11/10 20:41:54;;;;;;;24;38.4;;;;;;;7.4;89.5;100130;;;;
2022/11/10 20:52:54;;;;;;;25.7;35;;;;;;;7.4;89.6;100160;;;;
2022/11/10 21:03:54;;;;;;;25.7;35;;;;;;;7.3;89.6;100140;;;;
2022/11/10 21:13:54;;;;;;;30.6;39.6;;;;;;;7.2;89.5;100140;;;;
2022/11/10 21:24:54;;;;;;;30.6;39.6;;;;;;;7;89.3;100150;;;;
2022/11/10 21:35:54;;;;;;;30.6;39.6;;;;;;;6.9;89.3;100150;;;;
2022/11/10 21:45:54;;;;;;;24.3;33.2;;;;;;;6.8;89.2;100160;;;;
2022/11/10 21:55:54;;;;;;;24.3;33.2;;;;;;;6.6;89.1;100160;;;;
2022/11/10 22:07:25;;;;;;;24.3;33.2;;;;;;;6.4;88.9;100170;;;;
2022/11/10 22:18:58;;;;;;;15.6;25.5;;;;;;;6.4;89.2;100170;;;;
2022/11/10 22:27:54;;;;;;;15.6;25.5;;;;;;;6.4;89.4;100170;;;;
2022/11/10 22:38:54;;;;;;;15.6;25.5;;;;;;;6.6;89.8;100170;;;;
2022/11/10 22:48:54;;;;;;;12.9;19.9;;;;;;;6.5;89.7;100180;;;;
2022/11/10 22:59:54;;;;;;;12.9;19.9;;;;;;;6.4;89.5;100190;;;;
2022/11/10 23:09:54;;;;;;;12.9;19.9;;;;;;;6.2;89.3;100190;;;;
2022/11/10 23:19:54;;;;;;;16.4;26;;;;;;;6;89;100190;;;;
2022/11/10 23:30:54;;;;;;;16.4;26;;;;;;;5.8;89;100190;;;;
2022/11/10 23:40:54;;;;;;;16.4;26;;;;;;;5.7;89.2;100180;;;;
2022/11/10 23:51:54;;;;;;;12;20.9;;;;;;;5.6;89.3;100190;;;;
